メインページ
METAR-TAF:

METAR-TAF

空港 :

Edson, アルバータ州, カナダ

緯度: 53-35N, 経度: 116-28W, 海抜: 921m

現時点の気象観測

当レポートは1時間11分前の03:00(UTC)に作成
西の風 4kt
気温 13°C
湿度 88%
気圧 1012 hPa
視程: 14.5km
高度6500ftの雲はほとんどない
高度8000ftの千切れ雲あり

METAR: CYET 260300Z AUTO 28004KT 9SM FEW065 BKN080 13/11 A2989 RMK SLP135 DENSITY ALT 3500FT

時間: 22:11 (04:11 UTC)


TAF: 見つかりません

4,000以上の空港の気象観測と天気予報(METAR報とTAF報)

利用可能な観測所は地図上に黄色い丸と赤い丸で示す。

丸の上にカーソルを重ねると観測所名を参照できる。

次にクリックすると気象観測と天気予報を参照できる。

マップの切り替え:黒色「×」印の緑ボタンをクリックして拡大、「-」印の緑ボタンをクリックして縮小、緑色の三角印をクリックして隣りの地図に切り替え


METAR-TAF: